createdAt,value
2018-09-03T00:02:18.039Z,100097.30
2018-09-03T00:04:47.052Z,100093.97
2018-09-03T00:07:16.347Z,100098.26
2018-09-03T00:09:45.375Z,100104.14
2018-09-03T00:12:14.360Z,100103.16
2018-09-03T00:14:43.411Z,100107.34
2018-09-03T00:17:12.435Z,100105.17
2018-09-03T00:19:41.459Z,100107.25
2018-09-03T00:22:10.439Z,100106.48
2018-09-03T00:24:39.796Z,100104.87
2018-09-03T00:27:08.806Z,100100.94
2018-09-03T00:29:37.786Z,100097.67
2018-09-03T00:32:12.705Z,100097.30
2018-09-03T00:34:47.002Z,100100.34
2018-09-03T00:37:21.674Z,100102.14
2018-09-03T00:39:55.990Z,100100.78
2018-09-03T00:42:30.330Z,100097.78
2018-09-03T00:45:04.652Z,100098.16
2018-09-03T00:47:33.658Z,100099.41
2018-09-03T00:50:02.633Z,100103.64
2018-09-03T00:52:31.610Z,100096.55
2018-09-03T00:55:00.706Z,100105.30
2018-09-03T00:57:29.694Z,100109.35
2018-09-03T00:59:58.701Z,100114.92
2018-09-03T01:02:27.686Z,100108.36
2018-09-03T01:04:57.179Z,100103.70
2018-09-03T01:07:26.166Z,100115.14
2018-09-03T01:09:55.142Z,100112.29
2018-09-03T01:12:24.154Z,100125.17
2018-09-03T01:14:53.135Z,100126.06
2018-09-03T01:17:22.413Z,100125.81
2018-09-03T01:19:51.424Z,100127.98
2018-09-03T01:22:20.393Z,100125.41
2018-09-03T01:24:49.603Z,100130.48
2018-09-03T01:27:18.594Z,100139.73
2018-09-03T01:29:47.970Z,100128.39
2018-09-03T01:32:16.940Z,100148.09
2018-09-03T01:34:45.922Z,100145.89
2018-09-03T01:37:15.006Z,100149.77
2018-09-03T01:39:43.998Z,100138.61
2018-09-03T01:42:13.323Z,100145.22
2018-09-03T01:44:42.309Z,100134.00
2018-09-03T01:47:11.310Z,100132.45
2018-09-03T01:49:40.291Z,100130.78
2018-09-03T01:52:09.369Z,100125.48
2018-09-03T01:54:38.371Z,100129.82
2018-09-03T01:57:07.361Z,100130.30
2018-09-03T01:59:36.633Z,100129.41
2018-09-03T02:02:05.640Z,100120.88
2018-09-03T02:04:34.649Z,100121.83
2018-09-03T02:07:03.667Z,100097.72
2018-09-03T02:09:32.741Z,100117.41
2018-09-03T02:12:02.097Z,100116.40
2018-09-03T02:14:31.072Z,100110.98
2018-09-03T02:17:00.054Z,100104.10
2018-09-03T02:19:29.105Z,100100.48
2018-09-03T02:21:58.094Z,100092.91
2018-09-03T02:24:27.118Z,100092.02
2018-09-03T02:26:56.106Z,100097.78
2018-09-03T02:29:25.206Z,100080.95
2018-09-03T02:31:54.198Z,100098.03
2018-09-03T02:34:23.196Z,100095.34
2018-09-03T02:36:52.193Z,100081.81
2018-09-03T02:39:21.274Z,100077.92
2018-09-03T02:41:50.591Z,100087.75
2018-09-03T02:44:19.576Z,100081.27
2018-09-03T02:46:48.569Z,100083.90
2018-09-03T02:49:17.564Z,100084.73
2018-09-03T02:51:46.543Z,100085.02
2018-09-03T02:54:15.550Z,100085.91
2018-09-03T02:56:44.538Z,100088.97
2018-09-03T02:59:13.546Z,100077.80
2018-09-03T03:01:42.772Z,100083.47
2018-09-03T03:04:11.749Z,100072.66
2018-09-03T03:06:40.742Z,100077.67
2018-09-03T03:09:09.727Z,100070.35
2018-09-03T03:11:39.532Z,100069.03
2018-09-03T03:14:08.696Z,100069.09
2018-09-03T03:16:37.714Z,100066.36
2018-09-03T03:19:06.704Z,100065.50
2018-09-03T03:21:35.930Z,100059.56
2018-09-03T03:24:04.900Z,100059.30
2018-09-03T03:26:33.875Z,100061.92
2018-09-03T03:29:02.938Z,100059.96
2018-09-03T03:31:31.989Z,100056.02
2018-09-03T03:34:01.261Z,100060.02
2018-09-03T03:36:30.233Z,100054.30
2018-09-03T03:38:59.211Z,100049.28
2018-09-03T03:41:28.337Z,100056.84
2018-09-03T03:43:57.349Z,100053.58
2018-09-03T03:46:26.361Z,100041.94
2018-09-03T03:48:55.350Z,100033.88
2018-09-03T03:51:24.622Z,100041.76
2018-09-03T03:53:53.594Z,100039.44
2018-09-03T03:56:22.586Z,100033.52
2018-09-03T03:58:51.770Z,100039.44
2018-09-03T04:01:20.754Z,100043.19
2018-09-03T04:03:49.842Z,100050.41
2018-09-03T04:06:18.858Z,100041.71
2018-09-03T04:08:47.927Z,100038.42
2018-09-03T04:11:16.926Z,100032.22
2018-09-03T04:13:45.962Z,100025.47
2018-09-03T04:16:14.966Z,100018.73
2018-09-03T04:18:43.946Z,100024.64
2018-09-03T04:21:13.201Z,100027.09
2018-09-03T04:23:42.278Z,100026.30
2018-09-03T04:26:11.326Z,100024.64
2018-09-03T04:28:40.400Z,100021.48
2018-09-03T04:31:09.382Z,100023.68
2018-09-03T04:33:38.785Z,100021.05
2018-09-03T04:36:07.774Z,100027.44
2018-09-03T04:38:36.820Z,100030.20
2018-09-03T04:41:05.770Z,100029.23
2018-09-03T04:43:34.781Z,100035.45
2018-09-03T04:46:03.790Z,100031.69
2018-09-03T04:48:32.774Z,100034.00
2018-09-03T04:51:02.097Z,100035.31
2018-09-03T04:53:31.949Z,100032.82
2018-09-03T04:56:00.962Z,100033.77
2018-09-03T04:58:30.042Z,100030.49
2018-09-03T05:00:59.057Z,100023.58
2018-09-03T05:03:28.029Z,100029.36
2018-09-03T05:05:57.069Z,100031.50
2018-09-03T05:08:26.044Z,100032.47
2018-09-03T05:10:55.053Z,100018.31
2018-09-03T05:13:24.041Z,100028.70
2018-09-03T05:15:53.115Z,100033.78
2018-09-03T05:18:22.061Z,100036.27
2018-09-03T05:20:51.038Z,100037.59
2018-09-03T05:23:20.117Z,100033.35
2018-09-03T05:25:49.174Z,100036.81
2018-09-03T05:28:18.163Z,100042.24
2018-09-03T05:30:47.193Z,100042.66
2018-09-03T05:33:16.216Z,100042.82
2018-09-03T05:35:45.249Z,100043.84
2018-09-03T05:38:14.234Z,100044.89
2018-09-03T05:40:43.225Z,100044.94
2018-09-03T05:43:12.316Z,100046.55
2018-09-03T05:45:41.394Z,100046.39
2018-09-03T05:48:10.802Z,100052.12
2018-09-03T05:50:39.829Z,100056.87
2018-09-03T05:53:08.778Z,100050.87
2018-09-03T05:55:37.802Z,100055.30
2018-09-03T05:58:07.202Z,100051.96
2018-09-03T06:00:36.302Z,100048.69
2018-09-03T06:03:05.479Z,100045.62
2018-09-03T06:05:34.481Z,100046.41
2018-09-03T06:08:03.493Z,100054.02
2018-09-03T06:10:32.539Z,100048.08
2018-09-03T06:13:01.746Z,100047.58
2018-09-03T06:15:30.750Z,100052.84
2018-09-03T06:17:59.766Z,100050.52
2018-09-03T06:20:28.773Z,100043.64
2018-09-03T06:22:57.754Z,100037.42
2018-09-03T06:25:26.850Z,100040.61
2018-09-03T06:27:55.882Z,100040.00
2018-09-03T06:30:24.881Z,100040.83
2018-09-03T06:32:53.959Z,100036.23
2018-09-03T06:35:22.996Z,100034.05
2018-09-03T06:37:52.056Z,100039.97
2018-09-03T06:40:21.044Z,100041.63
2018-09-03T06:42:50.106Z,100038.41
2018-09-03T06:45:19.273Z,100039.09
2018-09-03T06:47:48.269Z,100041.21
2018-09-03T06:50:17.353Z,100045.13
2018-09-03T06:52:46.566Z,100038.44
2018-09-03T06:55:15.557Z,100045.08
2018-09-03T06:57:44.561Z,100032.37
2018-09-03T07:00:13.563Z,100034.08
2018-09-03T07:02:43.046Z,100030.79
2018-09-03T07:05:15.556Z,100030.42
2018-09-03T07:07:44.629Z,100030.77
2018-09-03T07:10:13.756Z,100032.08
2018-09-03T07:12:42.867Z,100028.57
2018-09-03T07:15:11.954Z,100024.42
2018-09-03T07:17:41.610Z,100024.40
2018-09-03T07:20:10.597Z,100011.81
2018-09-03T07:22:39.609Z,100014.80
2018-09-03T07:25:08.593Z,100013.66
2018-09-03T07:27:37.825Z,100011.84
2018-09-03T07:30:06.927Z,100017.79
2018-09-03T07:32:35.913Z,100021.08
2018-09-03T07:35:05.135Z,100022.23
2018-09-03T07:37:34.414Z,100017.44
2018-09-03T07:40:03.414Z,100012.17
2018-09-03T07:42:33.102Z,100026.31
2018-09-03T07:45:02.082Z,100027.98
2018-09-03T07:47:31.149Z,100024.38
2018-09-03T07:50:00.174Z,100023.08
2018-09-03T07:52:29.165Z,100022.73
2018-09-03T07:54:58.179Z,100017.47
2018-09-03T07:57:27.453Z,100016.48
2018-09-03T07:59:56.533Z,100016.98
2018-09-03T08:02:25.535Z,100011.58
2018-09-03T08:04:54.678Z,100006.14
2018-09-03T08:07:23.756Z,100000.17
2018-09-03T08:09:52.865Z,100007.73
2018-09-03T08:12:21.954Z,100005.69
2018-09-03T08:14:50.939Z,100004.03
2018-09-03T08:17:19.954Z,100004.42
2018-09-03T08:19:48.970Z,100006.69
2018-09-03T08:22:18.221Z,100010.22
2018-09-03T08:24:47.196Z,100011.49
2018-09-03T08:27:16.174Z,100016.54
2018-09-03T08:29:45.208Z,100020.05
2018-09-03T08:32:14.190Z,100023.00
2018-09-03T08:34:43.246Z,100023.66
2018-09-03T08:37:12.233Z,100017.55
2018-09-03T08:39:41.213Z,100016.09
2018-09-03T08:42:10.275Z,100012.30
2018-09-03T08:44:39.393Z,100011.80
2018-09-03T08:47:08.491Z,100002.55
2018-09-03T08:49:37.466Z,100001.84
2018-09-03T08:52:06.792Z,99997.33
2018-09-03T08:54:35.842Z,99994.85
2018-09-03T08:57:04.854Z,99992.54
2018-09-03T08:59:34.184Z,99987.66
2018-09-03T09:02:03.182Z,99986.27
2018-09-03T09:04:32.449Z,99990.88
2018-09-03T09:07:01.450Z,99987.13
2018-09-03T09:09:30.472Z,99979.75
2018-09-03T09:11:59.556Z,99989.88
2018-09-03T09:14:29.414Z,99980.58
2018-09-03T09:16:58.731Z,99991.22
2018-09-03T09:19:27.837Z,99986.27
2018-09-03T09:21:56.814Z,99979.19
2018-09-03T09:24:25.872Z,99976.59
2018-09-03T09:26:54.833Z,99980.44
2018-09-03T09:29:23.846Z,99976.56
2018-09-03T09:31:52.819Z,99973.29
2018-09-03T09:34:21.873Z,99974.38
2018-09-03T09:36:50.946Z,99972.36
2018-09-03T09:39:19.829Z,99967.62
2018-09-03T09:41:48.834Z,99968.56
2018-09-03T09:44:17.872Z,99975.54
2018-09-03T09:46:46.885Z,99976.37
2018-09-03T09:49:15.873Z,99976.78
2018-09-03T09:51:45.294Z,99969.92
2018-09-03T09:54:14.302Z,99972.81
2018-09-03T09:56:43.300Z,99971.67
2018-09-03T09:59:12.310Z,99969.39
2018-09-03T10:01:41.314Z,99973.02
2018-09-03T10:04:10.342Z,99972.13
2018-09-03T10:06:39.300Z,99965.14
2018-09-03T10:09:08.694Z,99964.69
2018-09-03T10:11:37.687Z,99969.33
2018-09-03T10:14:07.006Z,99967.09
2018-09-03T10:16:35.998Z,99966.00
2018-09-03T10:19:05.105Z,99960.87
2018-09-03T10:21:34.119Z,99961.16
2018-09-03T10:24:03.129Z,99969.08
2018-09-03T10:26:32.129Z,99959.80
2018-09-03T10:29:01.147Z,99954.49
2018-09-03T10:31:30.301Z,99957.41
2018-09-03T10:33:59.306Z,99955.48
2018-09-03T10:36:28.305Z,99954.25
2018-09-03T10:38:57.302Z,99950.25
2018-09-03T10:41:26.283Z,99944.02
2018-09-03T10:43:55.257Z,99948.48
2018-09-03T10:46:24.559Z,99944.45
2018-09-03T10:48:53.541Z,99946.55
2018-09-03T10:51:22.529Z,99941.64
2018-09-03T10:53:51.554Z,99940.87
2018-09-03T10:56:20.529Z,99943.18
2018-09-03T10:58:49.528Z,99939.83
2018-09-03T11:01:18.772Z,99939.15
2018-09-03T11:03:48.198Z,99940.86
2018-09-03T11:06:17.383Z,99939.09
2018-09-03T11:08:46.527Z,99935.63
2018-09-03T11:11:15.541Z,99931.42
2018-09-03T11:13:44.554Z,99934.41
2018-09-03T11:16:13.593Z,99935.11
2018-09-03T11:18:42.618Z,99921.45
2018-09-03T11:21:11.696Z,99926.07
2018-09-03T11:23:40.838Z,99929.61
2018-09-03T11:26:09.865Z,99926.33
2018-09-03T11:28:39.000Z,99919.83
2018-09-03T11:31:08.170Z,99916.48
2018-09-03T11:33:37.203Z,99918.55
2018-09-03T11:36:06.198Z,99918.94
2018-09-03T11:38:35.396Z,99899.17
2018-09-03T11:41:04.530Z,99908.33
2018-09-03T11:43:33.740Z,99901.62
2018-09-03T11:46:03.006Z,99899.95
2018-09-03T11:48:32.046Z,99898.82
2018-09-03T11:51:01.099Z,99897.59
2018-09-03T11:53:30.216Z,99900.84
2018-09-03T11:55:59.217Z,99908.53
2018-09-03T11:58:28.219Z,99905.43
2018-09-03T12:00:58.169Z,99908.70
2018-09-03T12:03:27.142Z,99916.17
2018-09-03T12:05:56.227Z,99907.41
2018-09-03T12:08:25.278Z,99909.69
2018-09-03T12:10:54.301Z,99907.80
2018-09-03T12:13:23.329Z,99907.80
2018-09-03T12:16:24.043Z,99903.98
2018-09-03T12:18:55.644Z,99903.28
2018-09-03T12:21:24.762Z,99894.44
2018-09-03T12:23:53.971Z,99900.88
2018-09-03T12:26:23.094Z,99899.69
2018-09-03T12:28:52.389Z,99899.34
2018-09-03T12:31:21.609Z,99902.09
2018-09-03T12:33:50.716Z,99894.92
2018-09-03T12:36:19.871Z,99891.86
2018-09-03T12:38:48.885Z,99893.65
2018-09-03T12:41:18.082Z,99886.84
2018-09-03T12:43:47.182Z,99891.22
2018-09-03T12:46:17.463Z,99888.78
2018-09-03T12:48:46.605Z,99877.41
2018-09-03T12:51:15.682Z,99883.22
2018-09-03T12:53:44.709Z,99869.59
2018-09-03T12:56:13.696Z,99871.31
2018-09-03T12:58:42.739Z,99874.50
2018-09-03T13:03:39.505Z,99875.83
2018-09-03T13:06:08.616Z,99876.12
2018-09-03T13:08:37.605Z,99878.48
2018-09-03T13:11:06.601Z,99882.88
2018-09-03T13:13:35.606Z,99881.47
2018-09-03T13:16:04.602Z,99879.70
2018-09-03T13:18:33.611Z,99886.46
2018-09-03T13:21:02.619Z,99887.09
2018-09-03T13:23:31.654Z,99878.44
2018-09-03T13:26:00.645Z,99875.80
2018-09-03T13:28:29.633Z,99868.12
2018-09-03T13:30:58.726Z,99866.41
2018-09-03T13:33:27.765Z,99867.14
2018-09-03T13:35:56.747Z,99861.25
2018-09-03T13:38:25.759Z,99863.50
2018-09-03T13:40:54.751Z,99860.52
2018-09-03T13:43:23.741Z,99854.33
2018-09-03T13:48:14.326Z,99860.91
2018-09-03T13:50:43.274Z,99854.83
2018-09-03T13:53:12.273Z,99847.61
2018-09-03T13:55:41.301Z,99844.03
2018-09-03T13:58:10.279Z,99841.16
2018-09-03T14:00:39.281Z,99843.00
2018-09-03T14:03:08.269Z,99842.77
2018-09-03T14:05:37.292Z,99841.52
2018-09-03T14:08:06.291Z,99845.48
2018-09-03T14:10:35.269Z,99836.58
2018-09-03T14:13:04.267Z,99843.03
2018-09-03T14:15:33.278Z,99842.56
2018-09-03T14:18:08.939Z,99842.46
2018-09-03T14:20:37.915Z,99836.59
2018-09-03T14:23:06.922Z,99844.47
2018-09-03T14:25:36.006Z,99840.52
2018-09-03T14:28:05.162Z,99842.39
2018-09-03T14:30:34.157Z,99843.05
2018-09-03T14:33:03.183Z,99841.53
2018-09-03T14:35:32.206Z,99838.26
2018-09-03T14:38:02.232Z,99833.95
2018-09-03T14:40:31.222Z,99833.78
2018-09-03T14:43:00.559Z,99831.42
2018-09-03T14:45:29.558Z,99837.33
2018-09-03T14:47:58.591Z,99833.34
2018-09-03T14:50:27.846Z,99833.52
2018-09-03T14:52:57.034Z,99833.34
2018-09-03T14:55:26.153Z,99824.95
2018-09-03T14:57:55.375Z,99835.31
2018-09-03T15:00:24.374Z,99834.98
2018-09-03T15:02:53.397Z,99830.39
2018-09-03T15:05:22.382Z,99832.30
2018-09-03T15:07:51.779Z,99836.81
2018-09-03T15:10:20.909Z,99839.89
2018-09-03T15:12:49.897Z,99842.20
2018-09-03T15:15:19.013Z,99837.23
2018-09-03T15:17:47.985Z,99836.38
2018-09-03T15:20:16.970Z,99827.39
2018-09-03T15:22:45.997Z,99823.17
2018-09-03T15:25:15.019Z,99819.67
2018-09-03T15:27:44.000Z,99818.25
2018-09-03T15:30:13.021Z,99817.31
2018-09-03T15:32:42.062Z,99815.53
2018-09-03T15:35:11.065Z,99822.61
2018-09-03T15:37:40.159Z,99816.75
2018-09-03T15:40:09.142Z,99820.36
2018-09-03T15:42:38.160Z,99817.70
2018-09-03T15:45:07.138Z,99820.17
2018-09-03T15:47:36.394Z,99808.52
2018-09-03T15:50:05.841Z,99811.16
2018-09-03T15:52:34.870Z,99815.34
2018-09-03T15:55:03.897Z,99811.13
2018-09-03T15:57:32.882Z,99820.66
2018-09-03T16:00:01.946Z,99827.02
2018-09-03T16:02:30.930Z,99826.99
2018-09-03T16:04:59.974Z,99829.05
2018-09-03T16:07:28.977Z,99821.77
2018-09-03T16:09:58.041Z,99829.94
2018-09-03T16:12:27.261Z,99832.77
2018-09-03T16:14:56.246Z,99833.91
2018-09-03T16:17:25.241Z,99828.70
2018-09-03T16:19:54.461Z,99835.80
2018-09-03T16:22:23.445Z,99837.19
2018-09-03T16:24:52.499Z,99832.34
2018-09-03T16:27:21.541Z,99831.91
2018-09-03T16:29:50.521Z,99838.54
2018-09-03T16:32:19.632Z,99832.69
2018-09-03T16:34:48.614Z,99839.58
2018-09-03T16:37:17.983Z,99834.52
2018-09-03T16:39:46.989Z,99834.52
2018-09-03T16:42:16.110Z,99828.84
2018-09-03T16:44:45.442Z,99833.37
2018-09-03T16:47:14.420Z,99834.19
2018-09-03T16:49:43.440Z,99835.06
2018-09-03T16:52:12.467Z,99840.90
2018-09-03T16:54:41.454Z,99833.63
2018-09-03T16:57:10.469Z,99829.03
2018-09-03T16:59:39.634Z,99830.17
2018-09-03T17:02:08.650Z,99832.68
2018-09-03T17:04:37.717Z,99837.27
2018-09-03T17:07:06.894Z,99831.66
2018-09-03T17:09:36.329Z,99832.03
2018-09-03T17:12:05.314Z,99836.58
2018-09-03T17:14:34.338Z,99835.98
2018-09-03T17:17:03.309Z,99828.49
2018-09-03T17:19:32.321Z,99831.33
2018-09-03T17:22:01.330Z,99830.88
2018-09-03T17:24:30.297Z,99831.91
2018-09-03T17:26:59.351Z,99837.04
2018-09-03T17:29:35.074Z,99839.06
2018-09-03T17:32:04.174Z,99835.14
2018-09-03T17:34:33.193Z,99833.28
2018-09-03T17:37:02.210Z,99843.02
2018-09-03T17:39:31.225Z,99834.80
2018-09-03T17:42:06.833Z,99846.16
2018-09-03T17:44:35.855Z,99843.05
2018-09-03T17:47:05.116Z,99846.30
2018-09-03T17:49:34.361Z,99847.32
2018-09-03T17:52:03.650Z,99849.34
2018-09-03T17:54:32.825Z,99848.64
2018-09-03T17:57:01.881Z,99848.34
2018-09-03T17:59:30.881Z,99848.21
2018-09-03T18:01:59.878Z,99849.56
2018-09-03T18:04:29.001Z,99854.59
2018-09-03T18:06:57.995Z,99858.02
2018-09-03T18:09:27.073Z,99859.88
2018-09-03T18:11:56.402Z,99853.30
2018-09-03T18:14:25.482Z,99851.67
2018-09-03T18:16:54.799Z,99852.27
2018-09-03T18:19:23.774Z,99861.89
2018-09-03T18:21:52.951Z,99860.62
2018-09-03T18:24:21.789Z,99856.06
2018-09-03T18:26:50.842Z,99859.75
2018-09-03T18:29:19.843Z,99859.44
2018-09-03T18:31:48.847Z,99857.20
2018-09-03T18:34:17.930Z,99854.25
2018-09-03T18:36:46.919Z,99856.28
2018-09-03T18:39:15.919Z,99859.44
2018-09-03T18:41:44.950Z,99867.91
2018-09-03T18:44:13.906Z,99873.21
2018-09-03T18:46:43.012Z,99868.27
2018-09-03T18:49:11.997Z,99873.59
2018-09-03T18:51:41.045Z,99875.77
2018-09-03T18:54:10.124Z,99880.92
2018-09-03T18:56:39.076Z,99882.94
2018-09-03T18:59:08.593Z,99882.50
2018-09-03T19:01:37.658Z,99879.39
2018-09-03T19:04:06.652Z,99888.97
2018-09-03T19:06:35.632Z,99889.30
2018-09-03T19:09:05.934Z,99889.98
2018-09-03T19:11:34.953Z,99894.92
2018-09-03T19:14:03.937Z,99886.03
2018-09-03T19:16:32.957Z,99895.44
2018-09-03T19:19:02.173Z,99893.45
2018-09-03T19:21:31.273Z,99892.13
2018-09-03T19:24:00.262Z,99895.59
2018-09-03T19:26:29.348Z,99895.11
2018-09-03T19:28:58.436Z,99893.79
2018-09-03T19:31:27.463Z,99888.03
2018-09-03T19:33:56.522Z,99895.90
2018-09-03T19:36:25.598Z,99889.98
2018-09-03T19:38:54.611Z,99888.33
2018-09-03T19:41:23.941Z,99888.03
2018-09-03T19:43:52.925Z,99884.38
2018-09-03T19:46:21.913Z,99888.18
2018-09-03T19:48:51.422Z,99891.98
2018-09-03T19:51:20.641Z,99890.81
2018-09-03T19:53:49.650Z,99887.88
2018-09-03T19:56:18.801Z,99892.14
2018-09-03T19:58:47.882Z,99887.69
2018-09-03T20:01:16.891Z,99892.63
2018-09-03T20:03:45.882Z,99884.07
2018-09-03T20:06:15.306Z,99888.67
2018-09-03T20:08:44.224Z,99886.67
2018-09-03T20:11:13.319Z,99888.81
2018-09-03T20:13:42.337Z,99886.52
2018-09-03T20:16:11.370Z,99887.02
2018-09-03T20:18:40.362Z,99892.63
2018-09-03T20:21:09.343Z,99891.98
2018-09-03T20:23:38.772Z,99888.67
2018-09-03T20:26:07.608Z,99892.66
2018-09-03T20:28:36.648Z,99885.88
2018-09-03T20:31:05.875Z,99882.11
2018-09-03T20:33:34.854Z,99888.70
2018-09-03T20:36:04.142Z,99881.25
2018-09-03T20:38:33.138Z,99880.92
2018-09-03T20:41:03.395Z,99883.73
2018-09-03T20:43:32.392Z,99885.70
2018-09-03T20:46:01.482Z,99889.01
2018-09-03T20:48:36.702Z,99888.67
2018-09-03T20:51:05.878Z,99892.28
2018-09-03T20:53:35.183Z,99896.23
2018-09-03T20:56:04.250Z,99895.94
2018-09-03T20:58:33.509Z,99895.93
2018-09-03T21:01:02.642Z,99892.66
2018-09-03T21:03:31.655Z,99893.63
2018-09-03T21:06:00.806Z,99891.67
2018-09-03T21:08:29.889Z,99889.34
2018-09-03T21:10:58.814Z,99899.88
2018-09-03T21:13:27.826Z,99892.64
2018-09-03T21:15:56.815Z,99893.97
2018-09-03T21:18:26.166Z,99891.66
2018-09-03T21:20:55.157Z,99897.08
2018-09-03T21:23:24.329Z,99900.73
2018-09-03T21:25:53.306Z,99904.00
2018-09-03T21:28:22.303Z,99899.41
2018-09-03T21:30:51.338Z,99899.56
2018-09-03T21:33:20.373Z,99903.20
2018-09-03T21:35:49.375Z,99895.94
2018-09-03T21:38:18.389Z,99899.55
2018-09-03T21:40:47.381Z,99895.30
2018-09-03T21:43:16.421Z,99898.91
2018-09-03T21:45:45.430Z,99888.21
2018-09-03T21:48:14.426Z,99893.82
2018-09-03T21:50:43.444Z,99896.11
2018-09-03T21:53:12.430Z,99896.29
2018-09-03T21:55:41.445Z,99895.60
2018-09-03T21:58:10.554Z,99894.14
2018-09-03T22:00:39.594Z,99894.95
2018-09-03T22:03:08.581Z,99892.96
2018-09-03T22:05:37.570Z,99896.41
2018-09-03T22:08:06.626Z,99890.97
2018-09-03T22:10:35.714Z,99895.56
2018-09-03T22:13:04.853Z,99891.63
2018-09-03T22:15:33.929Z,99892.07
2018-09-03T22:18:03.265Z,99897.00
2018-09-03T22:20:32.269Z,99895.51
2018-09-03T22:23:01.270Z,99896.47
2018-09-03T22:25:30.315Z,99892.52
2018-09-03T22:27:59.406Z,99890.19
2018-09-03T22:30:28.530Z,99890.69
2018-09-03T22:32:57.522Z,99894.78
2018-09-03T22:35:26.567Z,99889.81
2018-09-03T22:37:55.605Z,99892.11
2018-09-03T22:40:24.757Z,99884.18
2018-09-03T22:42:53.798Z,99881.53
2018-09-03T22:45:22.797Z,99884.30
2018-09-03T22:47:52.173Z,99876.08
2018-09-03T22:50:21.184Z,99880.48
2018-09-03T22:52:50.207Z,99880.46
2018-09-03T22:55:19.207Z,99878.32
2018-09-03T22:57:48.210Z,99881.06
2018-09-03T23:00:17.200Z,99881.03
2018-09-03T23:02:46.943Z,99880.86
2018-09-03T23:05:15.940Z,99882.98
2018-09-03T23:07:45.241Z,99882.08
2018-09-03T23:10:14.233Z,99889.27
2018-09-03T23:12:43.266Z,99884.95
2018-09-03T23:15:12.321Z,99882.98
2018-09-03T23:17:41.329Z,99885.27
2018-09-03T23:20:10.401Z,99885.75
2018-09-03T23:22:39.406Z,99885.05
2018-09-03T23:25:08.795Z,99882.05
2018-09-03T23:27:37.781Z,99881.52
2018-09-03T23:30:06.778Z,99881.96
2018-09-03T23:32:35.809Z,99871.03
2018-09-03T23:35:04.914Z,99874.27
2018-09-03T23:37:33.921Z,99874.09
2018-09-03T23:40:03.129Z,99879.13
2018-09-03T23:42:32.122Z,99879.47
2018-09-03T23:45:01.131Z,99867.73
2018-09-03T23:47:30.149Z,99864.89
2018-09-03T23:49:59.157Z,99862.36
2018-09-03T23:52:28.147Z,99867.08
2018-09-03T23:54:57.267Z,99858.72
2018-09-03T23:57:26.254Z,99860.81
2018-09-03T23:59:55.240Z,99850.62
